Time;durP1;ratioP1;P1;durP2;ratioP2;P2;SDS_P1;SDS_P2;PMS_P1;PMS_P2;Temp;Humidity;BMP_temperature;BMP_pressure;BME280_temperature;BME280_humidity;BME280_pressure;Samples;Min_cycle;Max_cycle;Signal;HPM_P1;HPM_P2
2023/07/20 00:00:03;;;;;;;3.95;3.25;;;18.70;76.60;;;;;;5052073;28;20507;-68
2023/07/20 00:02:29;;;;;;;4.03;2.95;;;18.70;76.80;;;;;;5049971;28;20091;-68
2023/07/20 00:04:55;;;;;;;4.53;3.08;;;18.60;76.90;;;;;;5056182;28;20120;-68
2023/07/20 00:07:20;;;;;;;3.78;2.88;;;18.60;77.00;;;;;;5059170;28;20053;-68
2023/07/20 00:09:46;;;;;;;5.15;2.70;;;18.60;77.00;;;;;;5052774;28;20020;-68
2023/07/20 00:12:11;;;;;;;3.88;3.17;;;18.60;77.10;;;;;;5049633;28;20112;-67
2023/07/20 00:14:37;;;;;;;4.85;3.10;;;18.50;77.20;;;;;;5049946;28;20029;-67
2023/07/20 00:17:05;;;;;;;4.05;3.45;;;18.50;77.30;;;;;;5051068;28;20029;-66
2023/07/20 00:19:32;;;;;;;4.82;3.28;;;18.40;77.60;;;;;;5051654;28;20048;-67
2023/07/20 00:21:57;;;;;;;6.28;3.47;;;18.40;77.80;;;;;;5049996;28;20032;-66
2023/07/20 00:24:23;;;;;;;4.75;3.92;;;18.40;77.90;;;;;;5051363;28;20017;-68
2023/07/20 00:26:49;;;;;;;3.47;2.83;;;18.30;78.00;;;;;;5049859;28;20025;-67
2023/07/20 00:29:15;;;;;;;3.85;2.92;;;18.30;78.20;;;;;;5049243;28;20025;-68
2023/07/20 00:31:40;;;;;;;3.78;2.97;;;18.20;78.30;;;;;;5049274;28;20032;-68
2023/07/20 00:34:06;;;;;;;4.53;2.88;;;18.20;78.30;;;;;;5049461;28;20009;-67
2023/07/20 00:36:32;;;;;;;4.72;3.20;;;18.20;78.60;;;;;;5058609;28;20499;-67
2023/07/20 00:38:58;;;;;;;4.68;3.00;;;18.20;78.60;;;;;;5049115;28;20064;-67
2023/07/20 00:41:24;;;;;;;4.07;3.28;;;18.20;78.70;;;;;;5049742;28;20471;-67
2023/07/20 00:43:50;;;;;;;4.32;2.88;;;18.20;78.80;;;;;;5050039;28;20052;-67
2023/07/20 00:46:16;;;;;;;4.32;2.97;;;18.20;78.90;;;;;;5051168;28;20025;-67
2023/07/20 00:48:42;;;;;;;4.07;2.83;;;18.20;79.10;;;;;;5049509;28;20104;-66
2023/07/20 00:51:08;;;;;;;4.82;3.30;;;18.20;79.30;;;;;;5054610;28;20484;-67
2023/07/20 00:53:34;;;;;;;4.88;3.38;;;18.10;79.30;;;;;;5049152;28;20032;-67
2023/07/20 00:55:59;;;;;;;5.05;3.17;;;18.10;79.60;;;;;;5047513;28;20029;-67
2023/07/20 00:58:25;;;;;;;4.47;2.75;;;18.10;79.60;;;;;;5057147;28;20060;-67
2023/07/20 01:00:51;;;;;;;4.07;2.95;;;18.10;79.80;;;;;;5049753;28;20025;-67
2023/07/20 01:03:17;;;;;;;4.93;2.97;;;18.10;80.10;;;;;;5032122;28;20029;-67
2023/07/20 01:05:50;;;;;;;3.85;3.03;;;18.00;80.30;;;;;;5054469;28;20028;-66
2023/07/20 01:08:22;;;;;;;4.60;3.05;;;18.00;80.50;;;;;;5049432;28;20025;-68
2023/07/20 01:10:56;;;;;;;4.10;2.50;;;18.00;80.70;;;;;;5054699;28;20104;-68
2023/07/20 01:13:22;;;;;;;4.45;2.70;;;18.00;81.50;;;;;;5052030;28;20027;-68
2023/07/20 01:15:58;;;;;;;3.72;2.83;;;18.00;81.10;;;;;;5063388;28;20383;-67
2023/07/20 01:18:24;;;;;;;4.50;2.55;;;17.90;81.40;;;;;;5033422;28;20036;-68
2023/07/20 01:20:49;;;;;;;3.67;2.78;;;17.90;81.50;;;;;;5050488;28;20025;-68
2023/07/20 01:23:27;;;;;;;5.10;2.72;;;17.90;81.60;;;;;;5049412;28;20448;-67
2023/07/20 01:26:10;;;;;;;3.10;2.50;;;17.90;81.80;;;;;;5058188;28;20436;-68
2023/07/20 01:28:56;;;;;;;3.70;2.65;;;17.90;81.80;;;;;;5041590;28;20013;-67
2023/07/20 01:31:25;;;;;;;3.33;2.53;;;17.90;81.80;;;;;;5039550;28;20128;-68
2023/07/20 01:33:55;;;;;;;3.33;2.70;;;17.90;81.90;;;;;;5050693;28;20018;-67
2023/07/20 01:36:23;;;;;;;3.67;2.50;;;17.90;82.20;;;;;;5061016;28;20037;-67
2023/07/20 01:38:49;;;;;;;5.05;3.10;;;18.00;82.20;;;;;;5049198;28;20021;-67
2023/07/20 01:41:15;;;;;;;3.65;2.42;;;18.00;82.20;;;;;;5049162;28;20627;-68
2023/07/20 01:43:42;;;;;;;4.50;2.60;;;18.00;82.40;;;;;;5048808;28;20032;-68
2023/07/20 01:46:07;;;;;;;2.95;2.35;;;17.90;82.50;;;;;;5047681;28;20036;-68
2023/07/20 01:48:33;;;;;;;3.97;2.60;;;17.90;82.60;;;;;;5048995;28;20431;-68
2023/07/20 01:50:58;;;;;;;2.83;2.38;;;17.90;82.80;;;;;;5036550;28;20040;-68
2023/07/20 01:53:24;;;;;;;4.28;3.00;;;17.80;82.80;;;;;;5050059;28;20028;-68
2023/07/20 01:55:52;;;;;;;2.92;2.53;;;17.90;83.50;;;;;;5059534;28;20021;-68
2023/07/20 01:58:17;;;;;;;3.50;2.42;;;17.90;83.00;;;;;;5052623;28;20048;-67
2023/07/20 02:00:43;;;;;;;3.50;2.35;;;17.80;83.10;;;;;;5052126;28;20479;-67
2023/07/20 02:03:08;;;;;;;3.60;2.40;;;17.70;83.20;;;;;;5052631;28;20463;-68
2023/07/20 02:05:34;;;;;;;3.47;2.22;;;17.70;83.30;;;;;;5055642;28;20037;-67
2023/07/20 02:07:59;;;;;;;3.15;2.35;;;17.70;84.10;;;;;;5061795;28;20099;-68
2023/07/20 02:10:25;;;;;;;2.85;2.22;;;17.60;83.60;;;;;;5056441;28;20025;-68
2023/07/20 02:12:51;;;;;;;4.22;2.35;;;17.70;83.70;;;;;;5052708;28;20044;-67
2023/07/20 02:15:18;;;;;;;3.83;2.38;;;17.70;83.80;;;;;;5060173;28;20078;-67
2023/07/20 02:17:44;;;;;;;2.88;2.30;;;17.60;83.80;;;;;;5057378;28;20028;-67
2023/07/20 02:20:10;;;;;;;2.55;2.13;;;17.70;83.90;;;;;;5056723;28;20029;-67
2023/07/20 02:22:37;;;;;;;3.58;2.40;;;17.60;84.10;;;;;;5052110;28;20029;-67
2023/07/20 02:25:07;;;;;;;2.80;2.00;;;17.60;84.10;;;;;;5053984;28;20116;-67
2023/07/20 02:27:36;;;;;;;2.33;1.70;;;17.60;84.10;;;;;;5036732;28;20013;-68
2023/07/20 02:30:03;;;;;;;2.20;1.90;;;17.60;84.00;;;;;;5051454;28;20039;-67
2023/07/20 02:32:29;;;;;;;1.98;1.77;;;17.60;84.00;;;;;;5058813;28;20052;-67
2023/07/20 02:34:55;;;;;;;2.45;1.60;;;17.50;84.00;;;;;;5064903;28;20025;-68
2023/07/20 02:37:20;;;;;;;2.40;1.98;;;17.50;84.10;;;;;;5054179;28;20108;-68
2023/07/20 02:39:46;;;;;;;2.50;1.70;;;17.40;84.10;;;;;;5055404;28;20031;-67
2023/07/20 02:42:13;;;;;;;2.05;1.70;;;17.40;84.20;;;;;;5051715;28;20032;-68
2023/07/20 02:44:38;;;;;;;2.45;2.00;;;17.40;84.10;;;;;;5055826;28;20024;-68
2023/07/20 02:47:04;;;;;;;2.75;2.00;;;17.40;84.10;;;;;;5062855;28;20035;-67
2023/07/20 02:49:30;;;;;;;2.20;2.00;;;17.40;84.10;;;;;;5054391;28;20064;-67
2023/07/20 02:51:55;;;;;;;2.80;2.10;;;17.40;84.30;;;;;;5054430;28;20028;-67
2023/07/20 02:54:21;;;;;;;2.85;2.00;;;17.30;84.40;;;;;;5050047;28;20329;-67
2023/07/20 02:56:47;;;;;;;2.92;1.80;;;17.30;84.50;;;;;;5052020;28;20079;-67
2023/07/20 02:59:12;;;;;;;2.75;1.70;;;17.30;84.50;;;;;;5050612;28;20708;-66
2023/07/20 03:01:38;;;;;;;2.22;1.75;;;17.20;84.50;;;;;;5034541;28;20056;-67
2023/07/20 03:04:04;;;;;;;2.20;1.90;;;17.20;84.70;;;;;;5055436;28;20025;-66
2023/07/20 03:06:29;;;;;;;2.25;1.70;;;17.20;84.80;;;;;;5053566;28;20125;-67
2023/07/20 03:08:55;;;;;;;2.92;1.63;;;17.20;84.70;;;;;;5056425;28;20460;-67
2023/07/20 03:11:21;;;;;;;2.05;1.80;;;17.10;84.70;;;;;;5051225;28;20068;-66
2023/07/20 03:13:47;;;;;;;3.30;2.00;;;17.10;84.80;;;;;;5034554;28;20025;-68
2023/07/20 03:16:19;;;;;;;1.95;1.77;;;17.10;84.80;;;;;;5056628;28;20029;-67
2023/07/20 03:18:45;;;;;;;2.80;1.80;;;17.10;84.90;;;;;;5049751;28;20032;-68
2023/07/20 03:21:11;;;;;;;2.20;2.00;;;17.00;84.90;;;;;;5051763;28;20024;-67
2023/07/20 03:23:38;;;;;;;1.75;1.58;;;17.00;85.00;;;;;;5051490;28;20025;-68
2023/07/20 03:26:04;;;;;;;2.22;1.70;;;17.00;85.20;;;;;;5051784;28;20111;-68
2023/07/20 03:28:29;;;;;;;2.08;1.67;;;16.90;85.20;;;;;;5050464;28;20556;-68
2023/07/20 03:30:58;;;;;;;2.75;1.70;;;16.90;85.20;;;;;;5047410;28;20079;-68
2023/07/20 03:33:28;;;;;;;2.80;1.80;;;16.90;85.20;;;;;;5056680;28;20070;-68
2023/07/20 03:35:55;;;;;;;1.88;1.55;;;16.90;85.20;;;;;;5052698;28;20100;-68
2023/07/20 03:38:25;;;;;;;1.60;1.40;;;16.80;85.20;;;;;;5034831;28;20371;-68
2023/07/20 03:40:56;;;;;;;1.90;1.80;;;16.80;85.20;;;;;;5051134;28;20024;-68
2023/07/20 03:43:22;;;;;;;1.80;1.70;;;16.80;85.20;;;;;;5050612;28;20033;-68
2023/07/20 03:45:48;;;;;;;2.22;1.60;;;16.80;85.20;;;;;;5052493;28;20024;-68
2023/07/20 03:48:19;;;;;;;1.55;1.45;;;16.70;85.20;;;;;;5055302;28;20536;-68
2023/07/20 03:50:47;;;;;;;2.45;1.83;;;16.80;85.40;;;;;;5056397;28;20104;-68
2023/07/20 03:53:13;;;;;;;1.70;1.55;;;16.80;85.50;;;;;;5051690;28;20017;-68
2023/07/20 03:55:40;;;;;;;2.35;1.60;;;16.70;85.40;;;;;;5051547;28;20155;-68
2023/07/20 03:58:06;;;;;;;1.70;1.60;;;16.70;85.40;;;;;;5050765;28;20107;-68
2023/07/20 04:00:32;;;;;;;1.40;1.30;;;16.60;85.50;;;;;;5051005;28;20035;-68
2023/07/20 04:02:57;;;;;;;1.70;1.60;;;16.60;85.50;;;;;;5050740;28;20033;-68
2023/07/20 04:05:23;;;;;;;2.00;1.80;;;16.60;85.60;;;;;;5047845;28;20083;-68
2023/07/20 04:07:48;;;;;;;2.40;2.10;;;16.60;85.70;;;;;;5043346;28;20655;-68
2023/07/20 04:10:14;;;;;;;1.90;1.65;;;16.60;85.70;;;;;;5050304;28;20029;-68
2023/07/20 04:12:40;;;;;;;2.75;2.20;;;16.50;85.80;;;;;;5038953;28;20028;-68
2023/07/20 04:15:06;;;;;;;2.17;1.95;;;16.50;86.00;;;;;;5045843;28;20033;-69
2023/07/20 04:17:31;;;;;;;3.15;2.45;;;16.50;86.10;;;;;;5045470;28;21026;-68
2023/07/20 04:19:57;;;;;;;2.72;2.40;;;16.50;86.20;;;;;;5046001;28;20017;-68
2023/07/20 04:22:22;;;;;;;3.25;2.65;;;16.50;86.30;;;;;;5032310;28;20433;-68
2023/07/20 04:24:48;;;;;;;2.20;2.00;;;16.50;86.30;;;;;;5056793;28;20029;-68
2023/07/20 04:27:13;;;;;;;2.58;2.28;;;16.60;86.30;;;;;;5061412;28;20078;-68
2023/07/20 04:29:39;;;;;;;2.67;2.20;;;16.60;86.20;;;;;;5070368;28;20122;-68
2023/07/20 04:32:05;;;;;;;2.40;2.20;;;16.60;86.20;;;;;;5070473;28;20025;-68
2023/07/20 04:34:31;;;;;;;2.35;2.10;;;16.60;86.20;;;;;;5068015;28;20051;-68
2023/07/20 04:36:56;;;;;;;3.28;2.10;;;16.60;86.30;;;;;;5052171;28;20040;-68
2023/07/20 04:39:22;;;;;;;2.60;2.40;;;16.60;86.30;;;;;;5043637;28;20037;-68
2023/07/20 04:41:48;;;;;;;2.25;1.85;;;16.60;86.40;;;;;;5047667;28;20622;-68
2023/07/20 04:44:14;;;;;;;2.53;2.17;;;16.60;86.40;;;;;;5037304;28;20112;-68
2023/07/20 04:46:40;;;;;;;2.28;2.08;;;16.60;86.40;;;;;;5048477;28;20056;-68
2023/07/20 04:49:05;;;;;;;2.30;2.10;;;16.60;86.40;;;;;;5048960;28;20017;-68
2023/07/20 04:51:31;;;;;;;2.00;1.90;;;16.70;86.40;;;;;;5050136;28;20033;-68
2023/07/20 04:53:57;;;;;;;1.92;1.77;;;16.70;86.30;;;;;;5048390;28;20021;-68
2023/07/20 04:56:24;;;;;;;1.90;1.77;;;16.70;86.30;;;;;;5050068;28;20028;-68
2023/07/20 04:58:50;;;;;;;2.10;1.90;;;16.70;86.30;;;;;;5050039;28;20036;-68
2023/07/20 05:01:15;;;;;;;2.35;2.15;;;16.70;86.20;;;;;;5048449;28;20403;-68
2023/07/20 05:03:41;;;;;;;2.03;1.83;;;16.70;86.20;;;;;;5049957;28;20021;-68
2023/07/20 05:06:06;;;;;;;2.67;2.47;;;16.70;86.20;;;;;;5050813;28;20033;-68
2023/07/20 05:08:32;;;;;;;2.42;2.22;;;16.70;86.40;;;;;;5048448;28;20037;-69
2023/07/20 05:10:59;;;;;;;2.25;2.05;;;17.10;86.70;;;;;;5049378;28;20029;-68
2023/07/20 05:13:25;;;;;;;2.17;1.98;;;18.00;84.80;;;;;;5047380;28;20028;-68
2023/07/20 05:15:54;;;;;;;2.15;1.95;;;18.90;81.50;;;;;;5049027;28;20017;-68
2023/07/20 05:18:20;;;;;;;2.38;2.17;;;19.70;78.40;;;;;;5051273;28;20033;-68
2023/07/20 05:20:49;;;;;;;1.70;1.60;;;20.40;75.80;;;;;;5047938;28;20111;-68
2023/07/20 05:23:18;;;;;;;1.63;1.52;;;21.00;73.50;;;;;;5051759;28;20025;-68
2023/07/20 05:25:44;;;;;;;1.77;1.67;;;21.50;71.70;;;;;;5047683;28;20017;-68
2023/07/20 05:28:09;;;;;;;1.95;1.77;;;22.00;69.70;;;;;;5051010;28;20454;-68
2023/07/20 05:30:35;;;;;;;1.52;1.42;;;22.40;68.20;;;;;;5058517;28;20159;-68
2023/07/20 05:33:01;;;;;;;1.70;1.60;;;22.80;67.00;;;;;;5056243;28;20028;-68
2023/07/20 05:35:27;;;;;;;1.75;1.50;;;23.20;65.70;;;;;;5052416;28;20044;-68
2023/07/20 05:37:52;;;;;;;1.92;1.80;;;23.50;64.80;;;;;;5051719;28;20025;-68
2023/07/20 05:40:18;;;;;;;1.50;1.40;;;23.80;64.00;;;;;;5054597;28;20029;-68
2023/07/20 05:42:51;;;;;;;1.40;1.30;;;24.20;62.90;;;;;;5052488;28;20345;-68
2023/07/20 05:45:17;;;;;;;1.30;1.20;;;24.60;62.20;;;;;;5054792;28;20021;-68
2023/07/20 05:47:43;;;;;;;1.38;1.27;;;25.00;61.20;;;;;;5054463;28;20044;-68
2023/07/20 05:50:09;;;;;;;1.63;1.52;;;25.20;60.50;;;;;;5053297;28;20056;-69
2023/07/20 05:52:34;;;;;;;1.40;1.30;;;25.20;60.00;;;;;;5052010;28;20515;-68
2023/07/20 05:55:00;;;;;;;1.63;1.20;;;25.40;59.70;;;;;;5051487;28;20051;-69
2023/07/20 05:57:25;;;;;;;1.33;1.20;;;25.70;59.20;;;;;;5050776;28;20025;-68
2023/07/20 05:59:51;;;;;;;1.25;1.15;;;25.60;58.80;;;;;;5052782;28;20216;-68
2023/07/20 06:02:17;;;;;;;2.00;1.40;;;24.90;59.60;;;;;;5052918;28;20096;-68
2023/07/20 06:04:42;;;;;;;1.35;1.10;;;25.00;59.70;;;;;;5054919;28;20050;-68
2023/07/20 06:07:08;;;;;;;2.10;1.05;;;25.00;58.60;;;;;;5052819;28;20525;-68
2023/07/20 06:09:34;;;;;;;1.23;0.90;;;24.90;58.60;;;;;;5053349;28;20039;-68
2023/07/20 06:12:00;;;;;;;1.38;0.90;;;25.10;58.60;;;;;;5050860;28;20025;-68
2023/07/20 06:14:25;;;;;;;1.27;0.95;;;25.30;58.00;;;;;;5053535;28;20408;-68
2023/07/20 06:16:51;;;;;;;0.80;0.80;;;25.30;57.20;;;;;;5048590;28;20032;-68
2023/07/20 06:19:19;;;;;;;1.08;0.80;;;25.50;56.80;;;;;;5047139;28;20115;-68
2023/07/20 06:21:45;;;;;;;3.20;0.80;;;25.60;56.50;;;;;;5047051;28;20024;-69
2023/07/20 06:24:10;;;;;;;0.85;0.65;;;25.70;56.40;;;;;;5048743;28;20697;-70
2023/07/20 06:26:39;;;;;;;1.65;0.70;;;25.40;55.80;;;;;;5050834;28;20009;-68
2023/07/20 06:29:06;;;;;;;0.70;0.70;;;25.30;55.90;;;;;;5031811;28;20021;-68
2023/07/20 06:31:32;;;;;;;0.80;0.68;;;25.20;55.90;;;;;;5032743;28;20025;-69
2023/07/20 06:33:58;;;;;;;1.02;0.70;;;25.20;56.30;;;;;;5050993;28;20025;-68
2023/07/20 06:36:25;;;;;;;1.75;0.70;;;25.00;56.30;;;;;;5051065;28;20028;-68
2023/07/20 06:38:51;;;;;;;0.63;0.63;;;24.70;57.10;;;;;;5052150;28;20106;-68
2023/07/20 06:41:17;;;;;;;0.88;0.77;;;24.30;58.00;;;;;;5051731;28;20049;-68
2023/07/20 06:43:42;;;;;;;0.82;0.70;;;23.90;58.40;;;;;;5051159;28;20020;-68
2023/07/20 06:46:08;;;;;;;1.02;0.70;;;23.50;58.90;;;;;;5049801;28;20496;-69
2023/07/20 06:48:33;;;;;;;2.20;0.75;;;23.20;59.50;;;;;;5049882;28;20017;-68
2023/07/20 06:50:59;;;;;;;1.13;0.60;;;22.90;60.00;;;;;;5050324;28;20500;-69
2023/07/20 06:53:24;;;;;;;1.00;0.70;;;22.70;60.90;;;;;;5050174;28;20475;-68
2023/07/20 06:55:50;;;;;;;0.80;0.52;;;22.60;61.20;;;;;;5047200;28;20404;-68
2023/07/20 06:58:17;;;;;;;1.95;0.70;;;22.50;61.10;;;;;;5051798;28;20041;-68
2023/07/20 07:00:44;;;;;;;0.90;0.57;;;22.50;61.10;;;;;;5053442;28;20027;-68
2023/07/20 07:03:10;;;;;;;0.63;0.50;;;22.50;61.00;;;;;;5050524;28;20071;-68
2023/07/20 07:05:37;;;;;;;0.63;0.52;;;22.50;60.80;;;;;;5052134;28;20029;-69
2023/07/20 07:08:03;;;;;;;0.70;0.70;;;22.50;60.20;;;;;;5054440;28;20112;-68
2023/07/20 07:10:29;;;;;;;1.08;0.50;;;22.50;60.00;;;;;;5050423;28;20484;-69
2023/07/20 07:12:54;;;;;;;2.00;0.80;;;22.50;59.60;;;;;;5051679;28;20024;-69
2023/07/20 07:15:20;;;;;;;1.02;0.55;;;22.50;59.20;;;;;;5052446;28;20122;-69
2023/07/20 07:17:45;;;;;;;1.08;0.60;;;22.50;59.00;;;;;;5052771;28;20472;-68
2023/07/20 07:20:11;;;;;;;1.63;0.80;;;22.60;58.80;;;;;;5050946;28;20033;-68
2023/07/20 07:22:37;;;;;;;0.68;0.50;;;22.60;58.50;;;;;;5052428;28;20025;-68
2023/07/20 07:25:03;;;;;;;0.80;0.70;;;22.50;58.10;;;;;;5049966;28;20079;-68
2023/07/20 07:27:28;;;;;;;0.88;0.70;;;22.50;57.70;;;;;;5053041;28;20022;-68
2023/07/20 07:29:55;;;;;;;0.40;0.40;;;22.40;57.70;;;;;;5050285;28;20078;-69
2023/07/20 07:32:21;;;;;;;0.50;0.50;;;22.50;58.00;;;;;;5053687;28;20116;-69
2023/07/20 07:34:47;;;;;;;0.40;0.40;;;22.70;58.00;;;;;;5054117;28;20096;-69
2023/07/20 07:37:13;;;;;;;0.45;0.45;;;22.80;57.80;;;;;;5049566;28;20107;-69
2023/07/20 07:39:39;;;;;;;0.60;0.60;;;23.00;57.60;;;;;;5050551;28;20025;-69
2023/07/20 07:42:05;;;;;;;0.60;0.40;;;23.20;57.50;;;;;;5049865;28;20024;-68
2023/07/20 07:44:31;;;;;;;0.50;0.45;;;23.40;57.20;;;;;;5033733;28;20043;-68
2023/07/20 07:46:57;;;;;;;2.00;0.70;;;23.50;56.90;;;;;;5049448;28;20025;-68
2023/07/20 07:49:23;;;;;;;0.90;0.68;;;23.30;55.50;;;;;;5049592;28;20117;-69
2023/07/20 07:51:48;;;;;;;0.80;0.40;;;23.20;56.10;;;;;;5032889;28;20105;-68
2023/07/20 07:54:14;;;;;;;0.65;0.60;;;23.20;56.30;;;;;;5049783;28;20132;-69
2023/07/20 07:56:40;;;;;;;0.80;0.65;;;23.20;56.00;;;;;;5036678;28;20066;-69
2023/07/20 07:59:06;;;;;;;1.15;0.50;;;23.40;56.00;;;;;;5049587;28;20016;-68
2023/07/20 08:01:32;;;;;;;0.60;0.60;;;23.40;55.60;;;;;;5052826;28;20411;-68
2023/07/20 08:03:57;;;;;;;0.70;0.50;;;23.40;55.30;;;;;;5052377;28;20171;-69
2023/07/20 08:06:24;;;;;;;0.93;0.57;;;23.10;55.40;;;;;;5050482;28;20033;-69
2023/07/20 08:08:50;;;;;;;0.50;0.50;;;22.80;55.60;;;;;;5064198;28;20079;-68
2023/07/20 08:11:16;;;;;;;0.70;0.52;;;22.70;56.10;;;;;;5051236;28;20057;-69
2023/07/20 08:13:42;;;;;;;0.45;0.45;;;22.70;56.20;;;;;;5055086;28;20017;-69
2023/07/20 08:16:07;;;;;;;0.95;0.50;;;22.80;55.80;;;;;;5052822;28;20029;-69
2023/07/20 08:18:33;;;;;;;0.85;0.50;;;22.90;56.10;;;;;;5049756;28;20025;-69
2023/07/20 08:20:58;;;;;;;0.90;0.60;;;23.10;55.50;;;;;;5051487;28;20074;-68
2023/07/20 08:23:24;;;;;;;0.60;0.60;;;23.20;55.30;;;;;;5049256;28;20119;-69
2023/07/20 08:25:50;;;;;;;1.10;0.50;;;23.20;54.90;;;;;;5051449;28;20021;-68
2023/07/20 08:28:16;;;;;;;1.05;0.47;;;23.20;54.10;;;;;;5050499;28;20031;-68
2023/07/20 08:30:43;;;;;;;1.05;0.52;;;22.80;54.30;;;;;;5049860;28;20094;-68
2023/07/20 08:33:19;;;;;;;1.25;0.60;;;22.60;54.80;;;;;;5045890;28;20028;-68
2023/07/20 08:35:45;;;;;;;0.57;0.50;;;22.70;55.20;;;;;;5047105;28;20028;-69
2023/07/20 08:38:10;;;;;;;1.50;0.60;;;22.80;55.00;;;;;;5051485;28;20017;-69
2023/07/20 08:40:44;;;;;;;0.57;0.57;;;23.00;54.60;;;;;;5048414;28;20101;-69
2023/07/20 08:43:14;;;;;;;1.48;0.60;;;23.20;54.20;;;;;;5052145;28;20333;-69
2023/07/20 08:45:41;;;;;;;0.50;0.50;;;23.40;53.80;;;;;;5047898;28;20052;-69
2023/07/20 08:48:07;;;;;;;0.95;0.40;;;23.50;53.20;;;;;;5046026;28;20619;-69
2023/07/20 08:50:34;;;;;;;1.27;0.63;;;23.60;52.80;;;;;;5048142;28;20051;-68
2023/07/20 08:53:00;;;;;;;0.38;0.38;;;23.80;52.20;;;;;;5050130;28;20104;-68
2023/07/20 08:55:27;;;;;;;1.15;0.52;;;23.90;51.10;;;;;;5049864;28;20013;-69
2023/07/20 08:57:57;;;;;;;0.50;0.50;;;23.60;49.70;;;;;;5048458;28;20104;-68
2023/07/20 09:00:24;;;;;;;0.68;0.60;;;23.20;50.20;;;;;;5048411;28;20116;-68
2023/07/20 09:02:51;;;;;;;0.80;0.60;;;22.90;51.30;;;;;;5046236;28;20025;-69
2023/07/20 09:05:22;;;;;;;0.40;0.40;;;23.20;52.20;;;;;;5047820;28;20396;-69
2023/07/20 09:07:48;;;;;;;0.85;0.50;;;23.30;52.00;;;;;;5048367;28;20495;-68
2023/07/20 09:10:13;;;;;;;1.10;0.50;;;23.50;51.70;;;;;;5048908;28;20060;-69
2023/07/20 09:12:41;;;;;;;0.82;0.60;;;23.50;50.90;;;;;;5050940;28;20091;-69
2023/07/20 09:15:08;;;;;;;0.60;0.50;;;23.60;51.50;;;;;;5052026;28;20082;-69
2023/07/20 09:17:34;;;;;;;0.50;0.50;;;23.80;51.90;;;;;;5031509;28;20040;-69
2023/07/20 09:20:08;;;;;;;0.50;0.40;;;23.90;51.70;;;;;;5030125;28;20037;-69
2023/07/20 09:22:34;;;;;;;0.57;0.50;;;23.90;51.70;;;;;;5048331;28;20384;-68
2023/07/20 09:24:59;;;;;;;1.58;0.60;;;23.90;51.60;;;;;;5047805;28;20036;-69
2023/07/20 09:27:38;;;;;;;1.00;0.50;;;24.00;51.60;;;;;;5051342;28;20044;-69
2023/07/20 09:30:07;;;;;;;0.40;0.40;;;24.10;51.40;;;;;;5048130;28;20028;-68
2023/07/20 09:32:38;;;;;;;0.57;0.40;;;24.20;50.50;;;;;;5048931;28;20051;-69
2023/07/20 09:35:05;;;;;;;0.60;0.50;;;24.30;49.60;;;;;;5048483;28;20025;-69
2023/07/20 09:37:33;;;;;;;0.50;0.50;;;24.30;48.30;;;;;;5049030;28;20487;-68
2023/07/20 09:39:59;;;;;;;0.90;0.55;;;24.40;48.00;;;;;;5051090;28;20059;-69
2023/07/20 09:42:26;;;;;;;0.80;0.50;;;24.50;48.20;;;;;;5053064;28;20416;-69
2023/07/20 09:44:52;;;;;;;0.40;0.40;;;24.70;48.40;;;;;;5049628;28;20539;-69
2023/07/20 09:47:22;;;;;;;0.82;0.50;;;24.80;48.70;;;;;;5033004;28;20017;-69
2023/07/20 09:49:48;;;;;;;1.83;0.65;;;24.80;49.00;;;;;;5045636;28;20498;-68
2023/07/20 09:52:15;;;;;;;0.73;0.57;;;24.60;48.80;;;;;;5050212;28;20060;-69
2023/07/20 09:54:44;;;;;;;0.50;0.50;;;24.50;49.00;;;;;;5045560;28;20099;-69
2023/07/20 09:57:13;;;;;;;0.40;0.40;;;24.50;49.10;;;;;;5051363;28;20029;-69
2023/07/20 09:59:39;;;;;;;0.73;0.43;;;24.50;49.30;;;;;;5048161;28;20020;-69
2023/07/20 10:02:13;;;;;;;1.48;0.50;;;24.50;49.20;;;;;;5044648;28;20659;-68
2023/07/20 10:04:40;;;;;;;0.50;0.50;;;24.60;49.30;;;;;;5028425;28;20029;-69
2023/07/20 10:07:13;;;;;;;0.40;0.40;;;24.30;48.40;;;;;;5047715;28;20017;-69
2023/07/20 10:09:40;;;;;;;0.63;0.60;;;24.30;48.70;;;;;;5044712;28;20453;-69
2023/07/20 10:12:09;;;;;;;0.85;0.60;;;24.30;48.70;;;;;;5045692;28;20021;-69
2023/07/20 10:14:42;;;;;;;0.90;0.65;;;24.10;48.90;;;;;;5052564;28;20025;-69
2023/07/20 10:17:13;;;;;;;1.02;0.68;;;24.00;49.20;;;;;;5054008;28;20414;-69
2023/07/20 10:19:47;;;;;;;1.03;0.50;;;24.10;49.40;;;;;;5054492;28;20110;-69
2023/07/20 10:22:24;;;;;;;1.98;0.73;;;24.00;49.70;;;;;;5049256;28;20040;-69
2023/07/20 10:24:53;;;;;;;0.68;0.50;;;24.20;50.20;;;;;;5052312;28;20086;-69
2023/07/20 10:27:20;;;;;;;0.52;0.52;;;24.30;49.60;;;;;;5052924;28;20005;-69
2023/07/20 10:29:47;;;;;;;1.08;0.70;;;24.30;49.50;;;;;;5053846;28;20037;-69
2023/07/20 10:32:13;;;;;;;0.95;0.60;;;24.30;49.40;;;;;;5051546;28;20486;-69
2023/07/20 10:34:39;;;;;;;1.60;0.70;;;24.30;49.40;;;;;;5051202;28;20024;-69
2023/07/20 10:37:05;;;;;;;0.82;0.63;;;24.40;49.80;;;;;;5050822;28;20391;-69
2023/07/20 10:39:32;;;;;;;1.02;0.60;;;24.50;49.30;;;;;;5052404;28;20124;-69
2023/07/20 10:42:10;;;;;;;1.63;0.60;;;24.60;49.30;;;;;;5051934;28;20033;-69
2023/07/20 10:44:39;;;;;;;0.65;0.60;;;24.70;49.30;;;;;;5049030;28;20040;-69
2023/07/20 10:47:10;;;;;;;1.20;0.73;;;24.60;49.40;;;;;;5051980;28;20020;-68
2023/07/20 10:50:00;;;;;;;0.60;0.57;;;24.50;49.10;;;;;;5051268;28;20053;-68
2023/07/20 10:52:26;;;;;;;0.68;0.60;;;24.60;48.70;;;;;;5050666;28;20023;-69
2023/07/20 10:54:51;;;;;;;1.40;0.70;;;24.60;48.90;;;;;;5049417;28;20112;-69
2023/07/20 10:57:28;;;;;;;0.60;0.60;;;24.80;48.90;;;;;;5032294;28;20036;-69
2023/07/20 11:00:11;;;;;;;0.50;0.50;;;25.00;48.60;;;;;;5050211;28;20025;-69
2023/07/20 11:02:48;;;;;;;0.60;0.60;;;25.10;48.50;;;;;;5051561;28;20028;-69
2023/07/20 11:05:34;;;;;;;1.25;0.70;;;25.20;48.30;;;;;;5050226;28;20672;-68
2023/07/20 11:08:02;;;;;;;0.70;0.50;;;25.30;48.20;;;;;;5049621;28;20045;-69
2023/07/20 11:10:27;;;;;;;0.80;0.60;;;25.50;48.00;;;;;;5050213;28;20025;-69
2023/07/20 11:13:31;;;;;;;1.17;0.70;;;25.50;47.60;;;;;;5049547;28;20025;-69
2023/07/20 11:15:57;;;;;;;0.90;0.60;;;25.50;47.50;;;;;;5050371;28;20032;-69
2023/07/20 11:18:25;;;;;;;0.50;0.50;;;25.60;47.60;;;;;;5055046;28;20033;-69
2023/07/20 11:20:52;;;;;;;0.90;0.60;;;25.60;47.50;;;;;;5053164;28;20025;-69
2023/07/20 11:23:19;;;;;;;0.95;0.63;;;25.60;47.70;;;;;;5053176;28;20058;-70
2023/07/20 11:25:45;;;;;;;0.70;0.60;;;25.50;47.70;;;;;;5051899;28;20784;-69
2023/07/20 11:28:11;;;;;;;0.57;0.57;;;25.60;47.60;;;;;;5048583;28;20149;-69
2023/07/20 11:30:40;;;;;;;1.70;0.60;;;25.60;47.60;;;;;;5053803;28;20116;-69
2023/07/20 11:33:08;;;;;;;1.10;0.88;;;25.80;47.80;;;;;;5051663;28;20092;-69
2023/07/20 11:35:46;;;;;;;1.00;0.65;;;25.90;47.80;;;;;;5051940;28;20087;-69
2023/07/20 11:38:12;;;;;;;0.95;0.75;;;25.80;47.90;;;;;;5053818;28;20111;-69
2023/07/20 11:40:45;;;;;;;1.42;0.80;;;25.80;47.80;;;;;;5055628;28;20032;-69
2023/07/20 11:43:13;;;;;;;1.02;0.77;;;25.70;48.10;;;;;;5053148;28;20104;-69
2023/07/20 11:45:39;;;;;;;1.13;0.60;;;25.60;48.30;;;;;;5051689;28;20029;-69
2023/07/20 11:48:05;;;;;;;1.02;0.52;;;25.50;48.70;;;;;;5054353;28;20025;-69
2023/07/20 11:50:30;;;;;;;0.93;0.60;;;25.50;48.70;;;;;;5050470;28;20025;-69
2023/07/20 11:52:57;;;;;;;0.65;0.50;;;25.30;48.70;;;;;;5051151;28;20092;-69
2023/07/20 11:55:22;;;;;;;0.90;0.60;;;25.20;48.80;;;;;;5050587;28;20482;-69
2023/07/20 11:58:08;;;;;;;1.75;0.80;;;25.20;49.10;;;;;;5051612;28;20028;-69
2023/07/20 12:00:35;;;;;;;0.80;0.70;;;25.20;49.30;;;;;;5050425;28;20442;-69
2023/07/20 12:03:01;;;;;;;1.02;0.82;;;25.30;49.30;;;;;;5051098;28;20126;-69
2023/07/20 12:05:27;;;;;;;0.70;0.70;;;25.40;48.70;;;;;;5062663;28;20025;-69
2023/07/20 12:07:54;;;;;;;0.95;0.68;;;25.50;48.50;;;;;;5071256;28;20048;-69
2023/07/20 12:10:27;;;;;;;0.80;0.60;;;25.60;48.40;;;;;;5071359;28;20021;-69
2023/07/20 12:12:53;;;;;;;0.60;0.60;;;25.90;48.00;;;;;;5066817;28;20024;-69
2023/07/20 12:15:23;;;;;;;0.98;0.60;;;26.10;47.80;;;;;;5050892;28;20079;-69
2023/07/20 12:17:51;;;;;;;0.80;0.52;;;26.00;46.80;;;;;;5051509;28;20028;-69
2023/07/20 12:20:29;;;;;;;0.80;0.60;;;25.90;47.00;;;;;;5051490;28;20112;-69
2023/07/20 12:23:08;;;;;;;0.60;0.60;;;25.80;46.90;;;;;;5058901;28;20495;-70
2023/07/20 12:25:40;;;;;;;0.60;0.60;;;25.70;47.10;;;;;;5033371;28;20487;-69
2023/07/20 12:28:13;;;;;;;1.05;0.50;;;25.60;47.30;;;;;;5051616;28;20021;-69
2023/07/20 12:30:40;;;;;;;0.60;0.50;;;25.50;47.50;;;;;;5050561;28;20510;-69
2023/07/20 12:33:06;;;;;;;0.60;0.60;;;25.80;47.80;;;;;;5050962;28;20063;-69
2023/07/20 12:35:32;;;;;;;0.70;0.70;;;26.10;47.70;;;;;;5050915;28;20037;-69
2023/07/20 12:37:58;;;;;;;1.63;0.70;;;26.30;47.30;;;;;;5049888;28;20036;-69
2023/07/20 12:40:24;;;;;;;1.65;0.60;;;26.50;46.70;;;;;;5062091;28;20020;-69
2023/07/20 12:42:50;;;;;;;1.15;0.70;;;26.60;46.50;;;;;;5070501;28;20032;-69
2023/07/20 12:45:15;;;;;;;0.90;0.88;;;26.70;46.10;;;;;;5070045;28;20027;-69
2023/07/20 12:47:43;;;;;;;1.10;0.70;;;27.00;45.60;;;;;;5068933;28;20017;-69